createdAt,value
2023-02-16T00:01:28.079Z,101719.13
2023-02-16T00:04:00.893Z,101715.50
2023-02-16T00:06:32.314Z,101718.28
2023-02-16T00:09:02.923Z,101714.38
2023-02-16T00:11:54.566Z,101708.50
2023-02-16T00:14:27.311Z,101705.72
2023-02-16T00:17:00.011Z,101707.38
2023-02-16T00:19:36.769Z,101707.91
2023-02-16T00:22:09.104Z,101704.53
2023-02-16T00:24:39.698Z,101696.38
2023-02-16T00:27:18.985Z,101696.91
2023-02-16T00:29:48.900Z,101695.47
2023-02-16T00:32:19.383Z,101699.94
2023-02-16T00:34:51.750Z,101696.81
2023-02-16T00:37:21.947Z,101695.69
2023-02-16T00:39:52.353Z,101695.16
2023-02-16T00:42:29.578Z,101697.13
2023-02-16T00:45:02.284Z,101705.81
2023-02-16T00:47:38.356Z,101700.50
2023-02-16T00:50:20.118Z,101702.78
2023-02-16T00:52:51.296Z,101706.72
2023-02-16T00:55:24.372Z,101712.56
2023-02-16T00:57:59.510Z,101709.78
2023-02-16T01:00:34.928Z,101705.34
2023-02-16T01:03:09.963Z,101708.44
2023-02-16T01:05:43.432Z,101723.19
2023-02-16T01:08:32.589Z,101724.03
2023-02-16T01:11:10.610Z,101729.28
2023-02-16T01:13:47.729Z,101730.94
2023-02-16T01:16:21.986Z,101723.66
2023-02-16T01:18:53.673Z,101731.38
2023-02-16T01:21:25.292Z,101730.78
2023-02-16T01:23:55.847Z,101730.22
2023-02-16T01:26:26.750Z,101734.03
2023-02-16T01:28:59.590Z,101739.03
2023-02-16T01:31:30.174Z,101744.81
2023-02-16T01:34:00.710Z,101736.66
2023-02-16T01:36:37.791Z,101747.22
2023-02-16T01:39:09.186Z,101740.22
2023-02-16T01:42:14.116Z,101745.19
2023-02-16T01:44:51.528Z,101732.91
2023-02-16T01:47:43.624Z,101730.94
2023-02-16T01:50:24.449Z,101726.22
2023-02-16T01:53:00.866Z,101732.91
2023-02-16T01:55:39.266Z,101735.16
2023-02-16T01:58:17.864Z,101738.53
2023-02-16T02:01:44.953Z,101736.38
2023-02-16T02:04:42.529Z,101740.91
2023-02-16T02:07:26.309Z,101750.38
2023-02-16T02:10:12.269Z,101754.84
2023-02-16T02:12:55.456Z,101758.47
2023-02-16T02:15:30.583Z,101762.66
2023-02-16T02:18:01.055Z,101760.19
2023-02-16T02:21:04.356Z,101759.34
2023-02-16T02:24:04.250Z,101765.53
2023-02-16T02:27:10.056Z,101763.88
2023-02-16T02:30:15.651Z,101767.25
2023-02-16T02:33:11.800Z,101773.13
2023-02-16T02:35:54.181Z,101775.94
2023-02-16T02:38:34.724Z,101775.03
2023-02-16T02:41:21.566Z,101775.94
2023-02-16T02:44:03.255Z,101771.16
2023-02-16T02:46:37.210Z,101768.38
2023-02-16T02:49:07.217Z,101758.91
2023-02-16T02:51:40.741Z,101766.13
2023-02-16T02:54:33.845Z,101766.66
2023-02-16T02:57:27.289Z,101776.69
2023-02-16T03:00:26.139Z,101777.50
2023-02-16T03:03:01.076Z,101780.28
2023-02-16T03:05:34.919Z,101772.25
2023-02-16T03:08:16.470Z,101769.75
2023-02-16T03:11:09.367Z,101772.25
2023-02-16T03:13:44.654Z,101778.75
2023-02-16T03:16:24.496Z,101778.25
2023-02-16T03:19:12.492Z,101786.59
2023-02-16T03:22:00.467Z,101780.19
2023-02-16T03:24:50.464Z,101792.97
2023-02-16T03:27:44.675Z,101789.38
2023-02-16T03:30:18.598Z,101792.75
2023-02-16T03:32:51.990Z,101791.41
2023-02-16T03:35:22.899Z,101798.09
2023-02-16T03:37:53.101Z,101792.00
2023-02-16T03:40:30.453Z,101799.50
2023-02-16T03:43:04.207Z,101796.22
2023-02-16T03:45:37.647Z,101798.47
2023-02-16T03:48:10.874Z,101800.72
2023-02-16T03:50:41.058Z,101808.00
2023-02-16T03:53:11.799Z,101811.94
2023-02-16T03:55:45.778Z,101810.56
2023-02-16T03:58:18.815Z,101808.06
2023-02-16T04:00:49.370Z,101803.94
2023-02-16T04:03:21.394Z,101810.63
2023-02-16T04:05:51.381Z,101813.41
2023-02-16T04:08:21.879Z,101813.41
2023-02-16T04:10:52.176Z,101814.00
2023-02-16T04:13:21.044Z,101806.78
2023-02-16T04:15:51.693Z,101815.44
2023-02-16T04:18:24.287Z,101818.53
2023-02-16T04:20:54.943Z,101820.47
2023-02-16T04:23:25.556Z,101815.75
2023-02-16T04:26:09.131Z,101815.44
2023-02-16T04:28:39.666Z,101805.09
2023-02-16T04:31:09.699Z,101801.81
2023-02-16T04:33:41.773Z,101805.41
2023-02-16T04:36:13.178Z,101813.78
2023-02-16T04:38:43.517Z,101814.59
2023-02-16T04:41:13.436Z,101820.69
2023-02-16T04:43:43.787Z,101824.00
2023-02-16T04:46:13.863Z,101821.78
2023-02-16T04:48:46.193Z,101831.47
2023-02-16T04:51:16.729Z,101831.16
2023-02-16T04:53:46.851Z,101840.91
2023-02-16T04:56:16.761Z,101838.63
2023-02-16T04:58:46.880Z,101836.38
2023-02-16T05:01:23.315Z,101846.41
2023-02-16T05:03:55.319Z,101858.06
2023-02-16T05:06:26.029Z,101851.06
2023-02-16T05:08:56.090Z,101858.31
2023-02-16T05:11:43.449Z,101868.00
2023-02-16T05:14:40.695Z,101860.50
2023-02-16T05:17:11.574Z,101860.78
2023-02-16T05:19:46.248Z,101866.06
2023-02-16T05:22:17.397Z,101869.69
2023-02-16T05:24:48.268Z,101874.44
2023-02-16T05:27:21.603Z,101882.47
2023-02-16T05:29:52.489Z,101887.78
2023-02-16T05:32:23.543Z,101891.38
2023-02-16T05:34:55.032Z,101890.25
2023-02-16T05:37:25.620Z,101896.06
2023-02-16T05:39:56.139Z,101897.72
2023-02-16T05:42:27.177Z,101907.41
2023-02-16T05:44:57.556Z,101901.56
2023-02-16T05:47:28.051Z,101918.00
2023-02-16T05:49:59.668Z,101914.91
2023-02-16T05:52:30.225Z,101919.38
2023-02-16T05:55:00.714Z,101919.91
2023-02-16T05:57:35.207Z,101934.38
2023-02-16T06:00:07.897Z,101926.84
2023-02-16T06:02:38.384Z,101929.31
2023-02-16T06:05:11.697Z,101932.94
2023-02-16T06:07:42.361Z,101929.03
2023-02-16T06:10:14.138Z,101932.34
2023-02-16T06:12:45.020Z,101937.84
2023-02-16T06:15:15.917Z,101932.72
2023-02-16T06:17:47.114Z,101939.03
2023-02-16T06:20:19.633Z,101939.41
2023-02-16T06:22:50.048Z,101943.09
2023-02-16T06:25:21.682Z,101944.03
2023-02-16T06:27:53.207Z,101944.13
2023-02-16T06:30:23.916Z,101943.88
2023-02-16T06:32:54.617Z,101948.38
2023-02-16T06:35:27.332Z,101953.72
2023-02-16T06:38:01.342Z,101947.84
2023-02-16T06:40:32.065Z,101950.59
2023-02-16T06:43:02.704Z,101950.03
2023-02-16T06:45:33.083Z,101958.63
2023-02-16T06:48:03.968Z,101956.34
2023-02-16T06:50:35.706Z,101961.31
2023-02-16T06:53:06.459Z,101952.91
2023-02-16T06:55:37.805Z,101956.84
2023-02-16T06:58:09.699Z,101957.66
2023-02-16T07:00:40.250Z,101955.97
2023-02-16T07:03:10.827Z,101961.00
2023-02-16T07:05:44.626Z,101960.75
2023-02-16T07:08:14.980Z,101953.25
2023-02-16T07:10:50.512Z,101953.53
2023-02-16T07:13:21.124Z,101956.09
2023-02-16T07:15:50.891Z,101956.16
2023-02-16T07:18:21.561Z,101955.38
2023-02-16T07:20:54.251Z,101959.38
2023-02-16T07:23:24.873Z,101962.56
2023-02-16T07:25:55.249Z,101960.44
2023-02-16T07:28:25.097Z,101959.66
2023-02-16T07:30:55.789Z,101956.06
2023-02-16T07:33:26.539Z,101968.50
2023-02-16T07:35:58.996Z,101966.91
2023-02-16T07:38:31.124Z,101963.13
2023-02-16T07:41:02.231Z,101970.06
2023-02-16T07:43:35.140Z,101968.75
2023-02-16T07:46:06.002Z,101975.03
2023-02-16T07:48:36.623Z,101976.06
2023-02-16T07:51:09.818Z,101975.41
2023-02-16T07:53:40.357Z,101978.22
2023-02-16T07:56:10.992Z,101974.28
2023-02-16T07:58:41.414Z,101979.38
2023-02-16T08:01:15.950Z,101978.53
2023-02-16T08:03:46.205Z,101984.31
2023-02-16T08:06:18.346Z,101981.31
2023-02-16T08:08:49.366Z,101979.50
2023-02-16T08:11:22.783Z,101987.72
2023-02-16T08:13:55.631Z,101983.09
2023-02-16T08:16:29.278Z,101985.69
2023-02-16T08:19:01.556Z,101992.25
2023-02-16T08:21:35.118Z,101985.63
2023-02-16T08:24:08.943Z,101989.88
2023-02-16T08:26:43.551Z,101995.66
2023-02-16T08:29:15.312Z,101988.19
2023-02-16T08:31:46.856Z,101995.28
2023-02-16T08:34:19.297Z,101979.09
2023-02-16T08:37:05.951Z,101987.84
2023-02-16T08:39:46.727Z,101976.44
2023-02-16T08:42:36.263Z,101978.41
2023-02-16T08:45:07.994Z,101985.16
2023-02-16T08:47:38.499Z,101984.34
2023-02-16T08:50:10.310Z,101985.66
2023-02-16T08:52:42.951Z,101970.19
2023-02-16T08:55:14.515Z,101977.09
2023-02-16T08:57:44.619Z,101974.00
2023-02-16T09:00:33.526Z,101972.84
2023-02-16T09:03:04.663Z,101972.34
2023-02-16T09:05:35.850Z,101967.06
2023-02-16T09:08:07.903Z,101965.41
2023-02-16T09:10:38.075Z,101965.41
2023-02-16T09:13:11.012Z,101973.81
2023-02-16T09:15:43.321Z,101980.25
2023-02-16T09:18:14.491Z,101973.50
2023-02-16T09:20:48.304Z,101972.34
2023-02-16T09:23:22.299Z,101977.63
2023-02-16T09:25:53.216Z,101971.72
2023-02-16T09:28:24.362Z,101976.19
2023-02-16T09:30:54.629Z,101970.56
2023-02-16T09:33:25.029Z,101970.25
2023-02-16T09:35:55.753Z,101963.31
2023-02-16T09:38:27.651Z,101973.66
2023-02-16T09:41:00.701Z,101964.75
2023-02-16T09:43:48.608Z,101971.50
2023-02-16T09:46:25.526Z,101974.97
2023-02-16T09:49:09.499Z,101974.13
2023-02-16T09:51:42.953Z,101966.06
2023-02-16T09:54:32.322Z,101968.53
2023-02-16T09:57:10.009Z,101956.50
2023-02-16T09:59:54.262Z,101958.97
2023-02-16T10:02:44.839Z,101954.19
2023-02-16T10:05:29.077Z,101950.25
2023-02-16T10:08:13.915Z,101945.13
2023-02-16T10:11:04.354Z,101948.44
2023-02-16T10:13:47.430Z,101944.16
2023-02-16T10:16:33.077Z,101947.16
2023-02-16T10:19:13.938Z,101939.56
2023-02-16T10:21:53.519Z,101938.94
2023-02-16T10:24:24.128Z,101938.94
2023-02-16T10:27:08.892Z,101935.00
2023-02-16T10:29:39.285Z,101939.75
2023-02-16T10:32:23.490Z,101939.75
2023-02-16T10:35:01.167Z,101929.69
2023-02-16T10:37:49.890Z,101931.34
2023-02-16T10:40:35.203Z,101939.25
2023-02-16T10:43:17.884Z,101939.91
2023-02-16T10:45:54.351Z,101936.59
2023-02-16T10:48:26.788Z,101932.78
2023-02-16T10:51:04.626Z,101923.84
2023-02-16T10:53:44.920Z,101931.78
2023-02-16T10:56:48.037Z,101926.81
2023-02-16T10:59:24.448Z,101929.09
2023-02-16T11:01:57.708Z,101930.56
2023-02-16T11:04:44.174Z,101922.50
2023-02-16T11:07:19.183Z,101925.59
2023-02-16T11:09:55.875Z,101916.69
2023-02-16T11:12:34.511Z,101927.09
2023-02-16T11:15:24.333Z,101922.28
2023-02-16T11:17:57.612Z,101916.22
2023-02-16T11:20:34.440Z,101922.63
2023-02-16T11:23:26.112Z,101924.63
2023-02-16T11:26:03.962Z,101913.72
2023-02-16T11:28:38.588Z,101915.69
2023-02-16T11:31:21.780Z,101916.00
2023-02-16T11:34:05.599Z,101905.13
2023-02-16T11:36:43.584Z,101899.84
2023-02-16T11:39:24.390Z,101903.47
2023-02-16T11:41:58.973Z,101907.91
2023-02-16T11:44:34.952Z,101899.19
2023-02-16T11:47:11.987Z,101896.09
2023-02-16T11:49:44.792Z,101891.81
2023-02-16T11:52:30.048Z,101898.72
2023-02-16T11:55:03.635Z,101898.44
2023-02-16T11:57:38.674Z,101898.91
2023-02-16T12:00:20.403Z,101903.06
2023-02-16T12:03:26.634Z,101903.06
2023-02-16T12:06:28.707Z,101899.94
2023-02-16T12:09:18.917Z,101897.63
2023-02-16T12:12:03.551Z,101897.28
2023-02-16T12:15:03.599Z,101894.50
2023-02-16T12:17:59.694Z,101899.81
2023-02-16T12:20:49.897Z,101903.75
2023-02-16T12:23:39.089Z,101901.25
2023-02-16T12:26:39.744Z,101901.25
2023-02-16T12:29:31.477Z,101906.84
2023-02-16T12:32:44.520Z,101911.66
2023-02-16T12:35:44.590Z,101914.78
2023-02-16T12:38:32.962Z,101913.94
2023-02-16T12:41:23.431Z,101918.41
2023-02-16T12:44:00.228Z,101919.53
2023-02-16T12:46:40.951Z,101919.53
2023-02-16T12:49:22.285Z,101916.75
2023-02-16T12:52:04.689Z,101917.59
2023-02-16T12:54:43.521Z,101907.53
2023-02-16T12:57:19.801Z,101918.41
2023-02-16T12:59:58.041Z,101910.81
2023-02-16T13:02:40.982Z,101920.38
2023-02-16T13:05:20.063Z,101910.00
2023-02-16T13:08:02.535Z,101917.59
2023-02-16T13:10:42.002Z,101915.59
2023-02-16T13:13:19.060Z,101909.19
2023-02-16T13:15:54.784Z,101913.59
2023-02-16T13:18:32.319Z,101912.47
2023-02-16T13:21:13.203Z,101900.78
2023-02-16T13:24:10.605Z,101907.53
2023-02-16T13:27:09.667Z,101903.88
2023-02-16T13:30:07.201Z,101908.66
2023-02-16T13:33:21.022Z,101908.16
2023-02-16T13:36:45.334Z,101911.59
2023-02-16T13:39:51.706Z,101911.41
2023-02-16T13:43:13.868Z,101905.63
2023-02-16T13:45:49.078Z,101907.91
2023-02-16T13:48:28.728Z,101905.97
2023-02-16T13:51:04.755Z,101911.88
2023-02-16T13:53:41.015Z,101908.25
2023-02-16T13:56:38.568Z,101910.53
2023-02-16T14:00:01.752Z,101912.03
2023-02-16T14:03:01.620Z,101913.50
2023-02-16T14:05:41.734Z,101921.06
2023-02-16T14:08:23.129Z,101920.25
2023-02-16T14:11:10.032Z,101921.38
2023-02-16T14:14:00.714Z,101920.88
2023-02-16T14:16:35.925Z,101922.84
2023-02-16T14:19:21.583Z,101917.06
2023-02-16T14:21:53.750Z,101927.78
2023-02-16T14:24:36.221Z,101928.91
2023-02-16T14:27:10.016Z,101932.03
2023-02-16T14:29:55.562Z,101927.56
2023-02-16T14:32:32.115Z,101926.22
2023-02-16T14:35:16.229Z,101930.19
2023-02-16T14:37:58.785Z,101933.31
2023-02-16T14:40:56.109Z,101933.94
2023-02-16T14:43:47.840Z,101934.56
2023-02-16T14:46:47.567Z,101933.53
2023-02-16T14:49:58.608Z,101937.81
2023-02-16T14:53:24.929Z,101947.16
2023-02-16T14:56:29.642Z,101935.44
2023-02-16T14:59:07.798Z,101937.72
2023-02-16T15:01:46.302Z,101930.97
2023-02-16T15:04:29.088Z,101932.94
2023-02-16T15:07:03.716Z,101935.75
2023-02-16T15:09:37.470Z,101948.94
2023-02-16T15:12:26.226Z,101945.63
2023-02-16T15:15:00.997Z,101956.28
2023-02-16T15:17:40.120Z,101962.22
2023-02-16T15:20:23.672Z,101954.97
2023-02-16T15:22:56.608Z,101974.88
2023-02-16T15:25:33.142Z,101968.44
2023-02-16T15:28:06.361Z,101974.38
2023-02-16T15:30:42.135Z,101974.69
2023-02-16T15:33:36.938Z,101985.91
2023-02-16T15:36:12.459Z,101991.78
2023-02-16T15:38:45.416Z,101994.91
2023-02-16T15:41:18.133Z,101991.31
2023-02-16T15:43:51.480Z,101990.78
2023-02-16T15:46:32.462Z,101995.53
2023-02-16T15:49:14.835Z,101995.03
2023-02-16T15:51:45.917Z,101996.19
2023-02-16T15:54:28.561Z,101999.00
2023-02-16T15:57:02.524Z,101997.63
2023-02-16T15:59:41.094Z,102005.22
2023-02-16T16:02:18.969Z,102004.69
2023-02-16T16:04:56.966Z,102000.22
2023-02-16T16:07:33.757Z,102003.34
2023-02-16T16:10:05.144Z,102013.22
2023-02-16T16:12:36.197Z,102010.69
2023-02-16T16:15:09.357Z,102021.91
2023-02-16T16:17:43.060Z,102022.22
2023-02-16T16:20:31.555Z,102028.97
2023-02-16T16:23:05.379Z,102022.84
2023-02-16T16:25:48.636Z,102028.75
2023-02-16T16:28:38.338Z,102032.19
2023-02-16T16:31:15.396Z,102030.50
2023-02-16T16:33:58.882Z,102031.66
2023-02-16T16:36:37.637Z,102037.56
2023-02-16T16:39:29.294Z,102035.38
2023-02-16T16:42:24.052Z,102043.59
2023-02-16T16:45:07.361Z,102043.91
2023-02-16T16:47:42.272Z,102045.84
2023-02-16T16:50:49.814Z,102047.31
2023-02-16T16:54:03.531Z,102040.69
2023-02-16T16:56:38.713Z,102050.53
2023-02-16T16:59:11.229Z,102054.41
2023-02-16T17:01:41.996Z,102058.38
2023-02-16T17:04:12.625Z,102065.13
2023-02-16T17:06:43.310Z,102065.41
2023-02-16T17:09:16.984Z,102067.38
2023-02-16T17:11:47.556Z,102064.88
2023-02-16T17:14:21.786Z,102071.66
2023-02-16T17:16:54.758Z,102076.72
2023-02-16T17:19:27.921Z,102074.19
2023-02-16T17:21:58.245Z,102072.56
2023-02-16T17:24:30.816Z,102078.47
2023-02-16T17:27:00.791Z,102073.19
2023-02-16T17:29:31.235Z,102085.50
2023-02-16T17:32:02.261Z,102080.22
2023-02-16T17:37:05.875Z,102088.38
2023-02-16T17:39:38.657Z,102087.56
2023-02-16T17:42:14.100Z,102085.09
2023-02-16T17:44:45.275Z,102083.44
2023-02-16T17:47:19.915Z,102098.53
2023-02-16T17:49:50.413Z,102095.22
2023-02-16T17:52:20.839Z,102095.22
2023-02-16T17:54:53.970Z,102099.16
2023-02-16T17:57:24.085Z,102095.81
2023-02-16T17:59:54.280Z,102096.97
2023-02-16T18:02:25.127Z,102094.47
2023-02-16T18:04:56.578Z,102097.59
2023-02-16T18:07:27.289Z,102101.53
2023-02-16T18:10:00.168Z,102101.84
2023-02-16T18:12:30.687Z,102099.34
2023-02-16T18:15:00.836Z,102104.41
2023-02-16T18:17:31.743Z,102108.31
2023-02-16T18:20:04.733Z,102101.09
2023-02-16T18:22:35.194Z,102108.97
2023-02-16T18:25:08.493Z,102108.13
2023-02-16T18:27:38.834Z,102107.63
2023-02-16T18:30:10.771Z,102109.88
2023-02-16T18:32:42.530Z,102116.59
2023-02-16T18:35:13.529Z,102112.47
2023-02-16T18:37:56.806Z,102121.97
2023-02-16T18:40:29.093Z,102127.84
2023-02-16T18:43:00.283Z,102120.91
2023-02-16T18:45:30.785Z,102125.69
2023-02-16T18:48:01.180Z,102120.38
2023-02-16T18:50:31.840Z,102123.19
2023-02-16T18:53:03.129Z,102131.06
2023-02-16T18:55:36.716Z,102118.22
2023-02-16T18:58:09.910Z,102123.28
2023-02-16T19:00:40.683Z,102128.88
2023-02-16T19:03:11.756Z,102129.16
2023-02-16T19:05:42.278Z,102128.66
2023-02-16T19:08:12.436Z,102131.44
2023-02-16T19:10:44.298Z,102128.13
2023-02-16T19:13:14.707Z,102134.84
2023-02-16T19:15:45.156Z,102134.03
2023-02-16T19:18:15.842Z,102127.91
2023-02-16T19:20:46.336Z,102124.56
2023-02-16T19:23:16.827Z,102130.16
2023-02-16T19:25:49.035Z,102126.03
2023-02-16T19:28:19.103Z,102131.59
2023-02-16T19:30:50.286Z,102132.75
2023-02-16T19:33:21.468Z,102132.16
2023-02-16T19:35:51.786Z,102131.63
2023-02-16T19:38:21.949Z,102124.38
2023-02-16T19:40:54.509Z,102117.13
2023-02-16T19:43:25.056Z,102116.63
2023-02-16T19:45:55.889Z,102120.56
2023-02-16T19:48:26.416Z,102122.81
2023-02-16T19:51:00.045Z,102129.53
2023-02-16T19:53:30.523Z,102121.47
2023-02-16T19:56:09.118Z,102121.75
2023-02-16T19:58:39.966Z,102116.47
2023-02-16T20:01:12.517Z,102130.44
2023-02-16T20:03:42.495Z,102131.56
2023-02-16T20:06:20.209Z,102125.19
2023-02-16T20:08:51.904Z,102126.59
2023-02-16T20:11:27.172Z,102122.97
2023-02-16T20:14:00.004Z,102121.63
2023-02-16T20:16:31.962Z,102126.38
2023-02-16T20:19:02.891Z,102125.81
2023-02-16T20:21:34.379Z,102126.13
2023-02-16T20:24:07.724Z,102128.13
2023-02-16T20:26:42.655Z,102131.19
2023-02-16T20:29:18.470Z,102123.94
2023-02-16T20:31:54.034Z,102127.06
2023-02-16T20:34:26.444Z,102132.94
2023-02-16T20:36:57.594Z,102128.50
2023-02-16T20:39:28.689Z,102130.44
2023-02-16T20:42:01.001Z,102128.25
2023-02-16T20:44:31.743Z,102127.41
2023-02-16T20:47:02.757Z,102131.34
2023-02-16T20:49:34.189Z,102131.66
2023-02-16T20:52:05.415Z,102127.19
2023-02-16T20:54:35.921Z,102127.50
2023-02-16T20:57:21.376Z,102137.00
2023-02-16T20:59:56.168Z,102136.47
2023-02-16T21:02:26.273Z,102124.75
2023-02-16T21:04:56.865Z,102128.41
2023-02-16T21:07:27.373Z,102127.88
2023-02-16T21:09:58.004Z,102128.19
2023-02-16T21:12:30.319Z,102122.88
2023-02-16T21:15:01.042Z,102129.59
2023-02-16T21:17:32.226Z,102125.13
2023-02-16T21:20:02.337Z,102121.53
2023-02-16T21:22:32.600Z,102123.47
2023-02-16T21:25:02.641Z,102126.56
2023-02-16T21:27:35.908Z,102124.09
2023-02-16T21:30:08.747Z,102120.44
2023-02-16T21:32:38.996Z,102120.75
2023-02-16T21:35:09.967Z,102120.75
2023-02-16T21:37:41.165Z,102123.03
2023-02-16T21:40:32.355Z,102118.56
2023-02-16T21:43:04.908Z,102118.03
2023-02-16T21:45:35.663Z,102119.19
2023-02-16T21:48:22.355Z,102129.50
2023-02-16T21:50:53.104Z,102119.78
2023-02-16T21:53:23.738Z,102128.44
2023-02-16T21:56:25.241Z,102133.19
2023-02-16T21:58:57.700Z,102126.25
2023-02-16T22:01:30.742Z,102135.75
2023-02-16T22:04:02.472Z,102126.56
2023-02-16T22:06:36.824Z,102129.34
2023-02-16T22:09:15.366Z,102134.38
2023-02-16T22:11:46.803Z,102136.34
2023-02-16T22:14:20.712Z,102141.38
2023-02-16T22:16:51.596Z,102137.78
2023-02-16T22:19:23.462Z,102145.56
2023-02-16T22:21:53.262Z,102144.75
2023-02-16T22:24:24.013Z,102144.22
2023-02-16T22:26:54.814Z,102142.53
2023-02-16T22:29:27.664Z,102151.22
2023-02-16T22:31:57.575Z,102157.06
2023-02-16T22:34:28.246Z,102156.56
2023-02-16T22:36:58.443Z,102150.44
2023-02-16T22:39:30.599Z,102155.50
2023-02-16T22:42:01.928Z,102151.88
2023-02-16T22:44:34.346Z,102153.00
2023-02-16T22:47:05.052Z,102154.13
2023-02-16T22:49:35.743Z,102155.25
2023-02-16T22:52:06.149Z,102157.19
2023-02-16T22:54:36.834Z,102153.59
2023-02-16T22:57:07.711Z,102146.66
2023-02-16T22:59:40.426Z,102148.59
2023-02-16T23:02:10.728Z,102154.16
2023-02-16T23:04:43.281Z,102146.94
2023-02-16T23:07:14.454Z,102154.78
2023-02-16T23:09:45.090Z,102147.53
2023-02-16T23:12:16.749Z,102152.28
2023-02-16T23:14:49.338Z,102147.81
2023-02-16T23:17:20.275Z,102148.94
2023-02-16T23:19:53.235Z,102152.88
2023-02-16T23:22:23.482Z,102147.31
2023-02-16T23:25:15.195Z,102155.94
2023-02-16T23:27:45.870Z,102153.75
2023-02-16T23:30:19.093Z,102141.78
2023-02-16T23:32:50.116Z,102147.34
2023-02-16T23:35:21.628Z,102151.25
2023-02-16T23:38:02.321Z,102147.66
2023-02-16T23:40:32.647Z,102137.91
2023-02-16T23:43:05.271Z,102142.66
2023-02-16T23:45:38.309Z,102133.47
2023-02-16T23:48:09.257Z,102140.44
2023-02-16T23:50:40.025Z,102136.00
2023-02-16T23:53:10.815Z,102132.69
2023-02-16T23:55:40.798Z,102133.81
2023-02-16T23:58:11.598Z,102135.75
